sensor_id;sensor_type;location;lat;lon;timestamp;P1;durP1;ratioP1;P2;durP2;ratioP2
59587;SDS011;45412;54.472;18.464;2023-08-01T00:00:03;8.50;;;3.00;;
59587;SDS011;45412;54.472;18.464;2023-08-01T00:03:17;8.00;;;3.40;;
59587;SDS011;45412;54.472;18.464;2023-08-01T00:06:04;7.50;;;3.30;;
59587;SDS011;45412;54.472;18.464;2023-08-01T00:08:51;9.00;;;3.70;;
59587;SDS011;45412;54.472;18.464;2023-08-01T00:11:38;11.20;;;3.50;;
59587;SDS011;45412;54.472;18.464;2023-08-01T00:14:25;8.70;;;3.20;;
59587;SDS011;45412;54.472;18.464;2023-08-01T00:17:13;8.60;;;3.40;;
59587;SDS011;45412;54.472;18.464;2023-08-01T00:20:03;8.40;;;3.20;;
59587;SDS011;45412;54.472;18.464;2023-08-01T00:22:51;9.20;;;3.70;;
59587;SDS011;45412;54.472;18.464;2023-08-01T00:25:38;7.60;;;3.20;;
59587;SDS011;45412;54.472;18.464;2023-08-01T00:28:31;9.30;;;3.10;;
59587;SDS011;45412;54.472;18.464;2023-08-01T00:31:21;9.60;;;3.10;;
59587;SDS011;45412;54.472;18.464;2023-08-01T00:34:09;7.50;;;2.70;;
59587;SDS011;45412;54.472;18.464;2023-08-01T00:36:57;7.30;;;2.90;;
59587;SDS011;45412;54.472;18.464;2023-08-01T00:39:44;8.70;;;3.40;;
59587;SDS011;45412;54.472;18.464;2023-08-01T00:42:31;8.70;;;3.10;;
59587;SDS011;45412;54.472;18.464;2023-08-01T00:45:19;8.70;;;3.10;;
59587;SDS011;45412;54.472;18.464;2023-08-01T00:48:07;8.20;;;3.30;;
59587;SDS011;45412;54.472;18.464;2023-08-01T00:50:54;9.30;;;3.60;;
59587;SDS011;45412;54.472;18.464;2023-08-01T00:53:42;9.00;;;3.20;;
59587;SDS011;45412;54.472;18.464;2023-08-01T00:56:30;7.40;;;3.00;;
59587;SDS011;45412;54.472;18.464;2023-08-01T00:59:19;9.80;;;3.70;;
59587;SDS011;45412;54.472;18.464;2023-08-01T01:02:05;9.00;;;3.30;;
59587;SDS011;45412;54.472;18.464;2023-08-01T01:04:56;11.60;;;3.10;;
59587;SDS011;45412;54.472;18.464;2023-08-01T01:07:43;8.70;;;3.10;;
59587;SDS011;45412;54.472;18.464;2023-08-01T01:10:30;8.20;;;3.10;;
59587;SDS011;45412;54.472;18.464;2023-08-01T01:13:17;10.00;;;3.40;;
59587;SDS011;45412;54.472;18.464;2023-08-01T01:16:05;7.30;;;3.20;;
59587;SDS011;45412;54.472;18.464;2023-08-01T01:18:52;7.80;;;2.80;;
59587;SDS011;45412;54.472;18.464;2023-08-01T01:21:39;9.60;;;2.90;;
59587;SDS011;45412;54.472;18.464;2023-08-01T01:24:29;9.30;;;3.10;;
59587;SDS011;45412;54.472;18.464;2023-08-01T01:27:16;7.30;;;2.90;;
59587;SDS011;45412;54.472;18.464;2023-08-01T01:30:06;8.40;;;2.80;;
59587;SDS011;45412;54.472;18.464;2023-08-01T01:32:53;8.30;;;2.90;;
59587;SDS011;45412;54.472;18.464;2023-08-01T01:35:40;7.60;;;2.70;;
59587;SDS011;45412;54.472;18.464;2023-08-01T01:38:29;8.10;;;2.70;;
59587;SDS011;45412;54.472;18.464;2023-08-01T01:41:16;8.50;;;2.70;;
59587;SDS011;45412;54.472;18.464;2023-08-01T01:44:02;7.90;;;3.10;;
59587;SDS011;45412;54.472;18.464;2023-08-01T01:46:52;7.90;;;2.70;;
59587;SDS011;45412;54.472;18.464;2023-08-01T01:49:39;6.40;;;2.10;;
59587;SDS011;45412;54.472;18.464;2023-08-01T01:52:26;7.30;;;2.70;;
59587;SDS011;45412;54.472;18.464;2023-08-01T01:55:14;6.60;;;2.50;;
59587;SDS011;45412;54.472;18.464;2023-08-01T01:58:01;6.80;;;2.40;;
59587;SDS011;45412;54.472;18.464;2023-08-01T02:00:52;6.70;;;2.30;;
59587;SDS011;45412;54.472;18.464;2023-08-01T02:03:40;7.00;;;2.30;;
59587;SDS011;45412;54.472;18.464;2023-08-01T02:06:27;7.10;;;2.10;;
59587;SDS011;45412;54.472;18.464;2023-08-01T02:09:15;9.20;;;2.90;;
59587;SDS011;45412;54.472;18.464;2023-08-01T02:12:02;7.90;;;2.80;;
59587;SDS011;45412;54.472;18.464;2023-08-01T02:14:51;7.20;;;2.70;;
59587;SDS011;45412;54.472;18.464;2023-08-01T02:17:39;8.20;;;2.20;;
59587;SDS011;45412;54.472;18.464;2023-08-01T02:20:26;6.80;;;2.30;;
59587;SDS011;45412;54.472;18.464;2023-08-01T02:23:15;7.50;;;2.60;;
59587;SDS011;45412;54.472;18.464;2023-08-01T02:26:03;7.10;;;2.50;;
59587;SDS011;45412;54.472;18.464;2023-08-01T02:28:50;8.00;;;2.60;;
59587;SDS011;45412;54.472;18.464;2023-08-01T02:31:40;8.00;;;2.60;;
59587;SDS011;45412;54.472;18.464;2023-08-01T02:34:28;7.00;;;2.90;;
59587;SDS011;45412;54.472;18.464;2023-08-01T02:37:18;7.30;;;2.60;;
59587;SDS011;45412;54.472;18.464;2023-08-01T02:40:09;7.80;;;2.70;;
59587;SDS011;45412;54.472;18.464;2023-08-01T02:42:57;9.60;;;3.30;;
59587;SDS011;45412;54.472;18.464;2023-08-01T02:45:44;8.70;;;3.00;;
59587;SDS011;45412;54.472;18.464;2023-08-01T02:48:34;7.40;;;2.50;;
59587;SDS011;45412;54.472;18.464;2023-08-01T02:51:23;8.00;;;2.80;;
59587;SDS011;45412;54.472;18.464;2023-08-01T02:54:09;8.50;;;2.80;;
59587;SDS011;45412;54.472;18.464;2023-08-01T02:56:58;7.90;;;3.00;;
59587;SDS011;45412;54.472;18.464;2023-08-01T02:59:46;9.00;;;3.40;;
59587;SDS011;45412;54.472;18.464;2023-08-01T03:02:35;8.90;;;3.10;;
59587;SDS011;45412;54.472;18.464;2023-08-01T03:05:22;9.40;;;3.10;;
59587;SDS011;45412;54.472;18.464;2023-08-01T03:08:11;6.70;;;2.60;;
59587;SDS011;45412;54.472;18.464;2023-08-01T03:11:03;7.60;;;2.90;;
59587;SDS011;45412;54.472;18.464;2023-08-01T03:13:52;7.40;;;2.50;;
59587;SDS011;45412;54.472;18.464;2023-08-01T03:16:39;8.80;;;2.70;;
59587;SDS011;45412;54.472;18.464;2023-08-01T03:19:26;9.70;;;3.00;;
59587;SDS011;45412;54.472;18.464;2023-08-01T03:22:13;9.00;;;3.10;;
59587;SDS011;45412;54.472;18.464;2023-08-01T03:25:00;9.70;;;3.10;;
59587;SDS011;45412;54.472;18.464;2023-08-01T03:27:54;9.90;;;3.00;;
59587;SDS011;45412;54.472;18.464;2023-08-01T03:30:41;10.50;;;2.80;;
59587;SDS011;45412;54.472;18.464;2023-08-01T03:33:29;9.50;;;2.60;;
59587;SDS011;45412;54.472;18.464;2023-08-01T03:36:17;8.10;;;3.10;;
59587;SDS011;45412;54.472;18.464;2023-08-01T03:39:04;7.50;;;2.80;;
59587;SDS011;45412;54.472;18.464;2023-08-01T03:41:51;8.60;;;3.00;;
59587;SDS011;45412;54.472;18.464;2023-08-01T03:44:41;7.40;;;2.90;;
59587;SDS011;45412;54.472;18.464;2023-08-01T03:47:31;7.80;;;3.30;;
59587;SDS011;45412;54.472;18.464;2023-08-01T03:50:20;9.60;;;3.20;;
59587;SDS011;45412;54.472;18.464;2023-08-01T03:53:09;9.00;;;3.00;;
59587;SDS011;45412;54.472;18.464;2023-08-01T03:55:57;7.80;;;2.90;;
59587;SDS011;45412;54.472;18.464;2023-08-01T03:58:44;8.50;;;2.70;;
59587;SDS011;45412;54.472;18.464;2023-08-01T04:01:31;9.50;;;3.20;;
59587;SDS011;45412;54.472;18.464;2023-08-01T04:04:18;7.50;;;2.90;;
59587;SDS011;45412;54.472;18.464;2023-08-01T04:07:06;8.10;;;2.70;;
59587;SDS011;45412;54.472;18.464;2023-08-01T04:09:53;8.90;;;3.30;;
59587;SDS011;45412;54.472;18.464;2023-08-01T04:12:43;7.50;;;2.90;;
59587;SDS011;45412;54.472;18.464;2023-08-01T04:15:30;9.50;;;4.10;;
59587;SDS011;45412;54.472;18.464;2023-08-01T04:18:17;8.80;;;3.10;;
59587;SDS011;45412;54.472;18.464;2023-08-01T04:21:13;8.00;;;2.80;;
59587;SDS011;45412;54.472;18.464;2023-08-01T04:24:09;8.60;;;2.90;;
59587;SDS011;45412;54.472;18.464;2023-08-01T04:27:01;10.90;;;3.00;;
59587;SDS011;45412;54.472;18.464;2023-08-01T04:29:51;9.10;;;2.90;;
59587;SDS011;45412;54.472;18.464;2023-08-01T04:32:40;8.70;;;2.90;;
59587;SDS011;45412;54.472;18.464;2023-08-01T04:35:29;8.60;;;3.30;;
59587;SDS011;45412;54.472;18.464;2023-08-01T04:38:18;8.10;;;3.60;;
59587;SDS011;45412;54.472;18.464;2023-08-01T04:41:11;9.30;;;2.80;;
59587;SDS011;45412;54.472;18.464;2023-08-01T04:44:09;8.00;;;2.90;;
59587;SDS011;45412;54.472;18.464;2023-08-01T04:46:59;9.20;;;3.40;;
59587;SDS011;45412;54.472;18.464;2023-08-01T04:49:46;7.90;;;2.90;;
59587;SDS011;45412;54.472;18.464;2023-08-01T04:52:44;7.60;;;3.10;;
59587;SDS011;45412;54.472;18.464;2023-08-01T04:55:32;9.90;;;3.00;;
59587;SDS011;45412;54.472;18.464;2023-08-01T04:58:29;9.20;;;3.30;;
59587;SDS011;45412;54.472;18.464;2023-08-01T05:02:29;11.10;;;3.50;;
59587;SDS011;45412;54.472;18.464;2023-08-01T05:05:27;9.60;;;3.40;;
59587;SDS011;45412;54.472;18.464;2023-08-01T05:08:14;8.60;;;2.60;;
59587;SDS011;45412;54.472;18.464;2023-08-01T05:11:00;9.30;;;3.20;;
59587;SDS011;45412;54.472;18.464;2023-08-01T05:13:51;8.00;;;3.20;;
59587;SDS011;45412;54.472;18.464;2023-08-01T05:16:39;11.40;;;3.00;;
59587;SDS011;45412;54.472;18.464;2023-08-01T05:19:34;8.80;;;3.10;;
59587;SDS011;45412;54.472;18.464;2023-08-01T05:26:00;8.90;;;3.10;;
59587;SDS011;45412;54.472;18.464;2023-08-01T05:29:18;9.60;;;3.80;;
59587;SDS011;45412;54.472;18.464;2023-08-01T05:32:15;10.60;;;3.40;;
59587;SDS011;45412;54.472;18.464;2023-08-01T05:35:13;8.90;;;3.40;;
59587;SDS011;45412;54.472;18.464;2023-08-01T05:38:28;10.70;;;3.50;;
59587;SDS011;45412;54.472;18.464;2023-08-01T05:41:31;8.90;;;4.70;;
59587;SDS011;45412;54.472;18.464;2023-08-01T05:44:34;8.70;;;3.40;;
59587;SDS011;45412;54.472;18.464;2023-08-01T05:47:41;10.20;;;3.40;;
59587;SDS011;45412;54.472;18.464;2023-08-01T05:50:36;8.70;;;3.00;;
59587;SDS011;45412;54.472;18.464;2023-08-01T05:54:14;8.20;;;3.20;;
59587;SDS011;45412;54.472;18.464;2023-08-01T05:57:56;8.80;;;3.40;;
59587;SDS011;45412;54.472;18.464;2023-08-01T06:01:16;10.20;;;3.60;;
59587;SDS011;45412;54.472;18.464;2023-08-01T06:04:08;9.90;;;3.60;;
59587;SDS011;45412;54.472;18.464;2023-08-01T06:07:06;9.10;;;3.30;;
59587;SDS011;45412;54.472;18.464;2023-08-01T06:10:42;10.30;;;3.70;;
59587;SDS011;45412;54.472;18.464;2023-08-01T06:13:31;12.20;;;3.60;;
59587;SDS011;45412;54.472;18.464;2023-08-01T06:16:18;9.20;;;3.70;;
59587;SDS011;45412;54.472;18.464;2023-08-01T06:19:06;10.20;;;3.60;;
59587;SDS011;45412;54.472;18.464;2023-08-01T06:21:57;10.40;;;3.80;;
59587;SDS011;45412;54.472;18.464;2023-08-01T06:24:48;9.90;;;3.90;;
59587;SDS011;45412;54.472;18.464;2023-08-01T06:27:39;10.90;;;3.70;;
59587;SDS011;45412;54.472;18.464;2023-08-01T06:30:37;9.20;;;3.60;;
59587;SDS011;45412;54.472;18.464;2023-08-01T06:33:38;9.60;;;3.50;;
59587;SDS011;45412;54.472;18.464;2023-08-01T06:36:31;8.70;;;3.30;;
59587;SDS011;45412;54.472;18.464;2023-08-01T06:39:55;11.00;;;3.50;;
59587;SDS011;45412;54.472;18.464;2023-08-01T06:42:56;8.00;;;3.00;;
59587;SDS011;45412;54.472;18.464;2023-08-01T06:45:44;10.40;;;3.80;;
59587;SDS011;45412;54.472;18.464;2023-08-01T06:48:31;9.00;;;3.60;;
59587;SDS011;45412;54.472;18.464;2023-08-01T06:51:22;9.20;;;3.60;;
59587;SDS011;45412;54.472;18.464;2023-08-01T06:54:11;9.90;;;3.40;;
59587;SDS011;45412;54.472;18.464;2023-08-01T06:57:03;10.20;;;3.70;;
59587;SDS011;45412;54.472;18.464;2023-08-01T06:59:54;9.70;;;3.70;;
59587;SDS011;45412;54.472;18.464;2023-08-01T07:02:41;9.80;;;3.50;;
59587;SDS011;45412;54.472;18.464;2023-08-01T07:05:32;10.60;;;3.80;;
59587;SDS011;45412;54.472;18.464;2023-08-01T07:08:21;10.30;;;3.50;;
59587;SDS011;45412;54.472;18.464;2023-08-01T07:11:15;9.30;;;3.80;;
